sensor_id;sensor_type;location;lat;lon;timestamp;pressure;altitude;pressure_sealevel;temperature;humidity
5595;BME280;1003;48.002;7.788;2022-07-04T00:01:33;99023.25;;;22.43;61.11
5595;BME280;1003;48.002;7.788;2022-07-04T00:04:00;99027.94;;;22.22;62.48
5595;BME280;1003;48.002;7.788;2022-07-04T00:06:28;99030.31;;;22.11;64.07
5595;BME280;1003;48.002;7.788;2022-07-04T00:08:55;99037.13;;;22.12;64.01
5595;BME280;1003;48.002;7.788;2022-07-04T00:11:23;99038.44;;;22.03;65.14
5595;BME280;1003;48.002;7.788;2022-07-04T00:13:51;99037.78;;;21.99;64.47
5595;BME280;1003;48.002;7.788;2022-07-04T00:16:18;99034.50;;;21.97;64.82
5595;BME280;1003;48.002;7.788;2022-07-04T00:18:45;99033.31;;;21.89;65.52
5595;BME280;1003;48.002;7.788;2022-07-04T00:21:12;99032.69;;;21.85;65.33
5595;BME280;1003;48.002;7.788;2022-07-04T00:23:39;99041.44;;;21.81;65.81
5595;BME280;1003;48.002;7.788;2022-07-04T00:26:06;99041.53;;;21.80;65.99
5595;BME280;1003;48.002;7.788;2022-07-04T00:28:34;99047.19;;;21.85;65.34
5595;BME280;1003;48.002;7.788;2022-07-04T00:31:01;99053.06;;;21.87;66.24
5595;BME280;1003;48.002;7.788;2022-07-04T00:33:29;99052.41;;;21.69;66.45
5595;BME280;1003;48.002;7.788;2022-07-04T00:35:56;99045.53;;;21.69;67.00
5595;BME280;1003;48.002;7.788;2022-07-04T00:38:23;99055.31;;;21.77;65.52
5595;BME280;1003;48.002;7.788;2022-07-04T00:40:50;99065.75;;;21.88;65.35
5595;BME280;1003;48.002;7.788;2022-07-04T00:43:22;99076.63;;;21.92;64.47
5595;BME280;1003;48.002;7.788;2022-07-04T00:45:51;99067.13;;;21.80;64.63
5595;BME280;1003;48.002;7.788;2022-07-04T00:48:19;99072.16;;;21.95;63.59
5595;BME280;1003;48.002;7.788;2022-07-04T00:50:47;99073.06;;;21.94;64.09
5595;BME280;1003;48.002;7.788;2022-07-04T00:53:15;99071.31;;;21.95;63.85
5595;BME280;1003;48.002;7.788;2022-07-04T00:55:44;99078.66;;;21.87;64.38
5595;BME280;1003;48.002;7.788;2022-07-04T00:58:13;99078.44;;;21.75;65.98
5595;BME280;1003;48.002;7.788;2022-07-04T01:00:41;99081.00;;;21.75;65.38
5595;BME280;1003;48.002;7.788;2022-07-04T01:03:10;99076.81;;;21.74;65.24
5595;BME280;1003;48.002;7.788;2022-07-04T01:05:38;99073.06;;;21.80;65.26
5595;BME280;1003;48.002;7.788;2022-07-04T01:08:07;99077.00;;;21.86;65.20
5595;BME280;1003;48.002;7.788;2022-07-04T01:10:35;99076.09;;;21.87;65.02
5595;BME280;1003;48.002;7.788;2022-07-04T01:13:02;99069.84;;;21.77;65.44
5595;BME280;1003;48.002;7.788;2022-07-04T01:15:29;99072.38;;;21.62;66.56
5595;BME280;1003;48.002;7.788;2022-07-04T01:17:56;99066.13;;;21.52;67.79
5595;BME280;1003;48.002;7.788;2022-07-04T01:20:25;99070.16;;;21.42;69.38
5595;BME280;1003;48.002;7.788;2022-07-04T01:22:52;99082.50;;;21.34;69.63
5595;BME280;1003;48.002;7.788;2022-07-04T01:25:19;99084.56;;;21.43;70.13
5595;BME280;1003;48.002;7.788;2022-07-04T01:27:46;99083.19;;;21.37;70.54
5595;BME280;1003;48.002;7.788;2022-07-04T01:30:13;99086.38;;;21.41;71.03
5595;BME280;1003;48.002;7.788;2022-07-04T01:32:41;99088.63;;;21.31;71.00
5595;BME280;1003;48.002;7.788;2022-07-04T01:35:09;99085.81;;;21.36;71.39
5595;BME280;1003;48.002;7.788;2022-07-04T01:37:38;99089.75;;;21.41;70.10
5595;BME280;1003;48.002;7.788;2022-07-04T01:40:06;99083.44;;;21.17;71.88
5595;BME280;1003;48.002;7.788;2022-07-04T01:42:33;99084.69;;;21.10;72.51
5595;BME280;1003;48.002;7.788;2022-07-04T01:45:00;99083.09;;;21.07;71.72
5595;BME280;1003;48.002;7.788;2022-07-04T01:47:28;99084.09;;;21.05;70.58
5595;BME280;1003;48.002;7.788;2022-07-04T01:49:55;99087.81;;;20.99;71.14
5595;BME280;1003;48.002;7.788;2022-07-04T01:52:22;99091.09;;;21.01;70.85
5595;BME280;1003;48.002;7.788;2022-07-04T01:54:50;99093.31;;;21.07;68.62
5595;BME280;1003;48.002;7.788;2022-07-04T01:57:17;99100.50;;;21.16;67.67
5595;BME280;1003;48.002;7.788;2022-07-04T01:59:44;99094.97;;;21.08;67.80
5595;BME280;1003;48.002;7.788;2022-07-04T02:02:29;99088.69;;;20.98;67.11
5595;BME280;1003;48.002;7.788;2022-07-04T02:04:56;99083.19;;;21.06;66.19
5595;BME280;1003;48.002;7.788;2022-07-04T02:07:23;99107.41;;;20.98;66.70
5595;BME280;1003;48.002;7.788;2022-07-04T02:09:52;99114.84;;;21.03;66.07
5595;BME280;1003;48.002;7.788;2022-07-04T02:12:19;99122.91;;;20.95;66.48
5595;BME280;1003;48.002;7.788;2022-07-04T02:15:05;99126.31;;;20.96;66.41
5595;BME280;1003;48.002;7.788;2022-07-04T02:17:33;99131.00;;;20.88;66.44
5595;BME280;1003;48.002;7.788;2022-07-04T02:20:01;99142.13;;;20.87;66.64
5595;BME280;1003;48.002;7.788;2022-07-04T02:22:28;99149.38;;;20.79;66.96
5595;BME280;1003;48.002;7.788;2022-07-04T02:24:56;99144.59;;;20.73;68.06
5595;BME280;1003;48.002;7.788;2022-07-04T02:27:23;99148.34;;;20.65;68.75
5595;BME280;1003;48.002;7.788;2022-07-04T02:29:50;99144.47;;;20.58;70.28
5595;BME280;1003;48.002;7.788;2022-07-04T02:32:17;99145.16;;;20.62;69.30
5595;BME280;1003;48.002;7.788;2022-07-04T02:34:44;99154.91;;;20.54;70.17
5595;BME280;1003;48.002;7.788;2022-07-04T02:37:12;99147.38;;;20.68;69.24
5595;BME280;1003;48.002;7.788;2022-07-04T02:39:39;99144.16;;;20.64;69.81
5595;BME280;1003;48.002;7.788;2022-07-04T02:42:08;99154.59;;;20.60;69.68
5595;BME280;1003;48.002;7.788;2022-07-04T02:44:35;99144.31;;;20.61;69.68
5595;BME280;1003;48.002;7.788;2022-07-04T02:47:03;99138.47;;;20.42;71.40
5595;BME280;1003;48.002;7.788;2022-07-04T02:49:30;99130.38;;;20.34;72.76
5595;BME280;1003;48.002;7.788;2022-07-04T02:51:57;99119.41;;;20.32;73.02
5595;BME280;1003;48.002;7.788;2022-07-04T02:54:24;99114.41;;;20.30;74.48
5595;BME280;1003;48.002;7.788;2022-07-04T02:56:51;99126.06;;;20.18;74.80
5595;BME280;1003;48.002;7.788;2022-07-04T02:59:19;99157.34;;;20.05;76.47
5595;BME280;1003;48.002;7.788;2022-07-04T03:01:46;99162.75;;;19.99;77.21
5595;BME280;1003;48.002;7.788;2022-07-04T03:04:14;99165.69;;;19.91;77.61
5595;BME280;1003;48.002;7.788;2022-07-04T03:06:41;99159.81;;;19.89;78.34
5595;BME280;1003;48.002;7.788;2022-07-04T03:09:09;99143.91;;;19.84;77.81
5595;BME280;1003;48.002;7.788;2022-07-04T03:11:36;99154.34;;;19.79;76.94
5595;BME280;1003;48.002;7.788;2022-07-04T03:14:03;99141.75;;;19.76;77.49
5595;BME280;1003;48.002;7.788;2022-07-04T03:16:31;99142.66;;;19.75;77.55
5595;BME280;1003;48.002;7.788;2022-07-04T03:18:59;99142.78;;;19.72;77.82
5595;BME280;1003;48.002;7.788;2022-07-04T03:21:26;99139.56;;;19.69;78.59
5595;BME280;1003;48.002;7.788;2022-07-04T03:23:53;99134.63;;;19.65;78.95
5595;BME280;1003;48.002;7.788;2022-07-04T03:26:26;99136.56;;;19.78;78.70
5595;BME280;1003;48.002;7.788;2022-07-04T03:28:55;99125.03;;;19.71;78.86
5595;BME280;1003;48.002;7.788;2022-07-04T03:31:23;99127.72;;;20.02;77.56
5595;BME280;1003;48.002;7.788;2022-07-04T03:33:52;99116.25;;;19.93;78.05
5595;BME280;1003;48.002;7.788;2022-07-04T03:36:19;99114.44;;;19.78;78.13
5595;BME280;1003;48.002;7.788;2022-07-04T03:38:47;99118.56;;;19.81;78.25
5595;BME280;1003;48.002;7.788;2022-07-04T03:41:14;99118.88;;;19.92;78.60
5595;BME280;1003;48.002;7.788;2022-07-04T03:43:42;99120.66;;;19.90;78.02
5595;BME280;1003;48.002;7.788;2022-07-04T03:46:09;99111.44;;;19.87;78.86
5595;BME280;1003;48.002;7.788;2022-07-04T03:48:36;99119.97;;;19.69;80.18
5595;BME280;1003;48.002;7.788;2022-07-04T03:51:04;99103.78;;;19.70;79.79
5595;BME280;1003;48.002;7.788;2022-07-04T03:53:31;99109.72;;;19.71;80.28
5595;BME280;1003;48.002;7.788;2022-07-04T03:55:58;99104.50;;;19.55;81.94
5595;BME280;1003;48.002;7.788;2022-07-04T03:58:25;99115.66;;;19.71;81.68
5595;BME280;1003;48.002;7.788;2022-07-04T04:00:52;99110.03;;;19.82;80.19
5595;BME280;1003;48.002;7.788;2022-07-04T04:03:19;99114.53;;;19.77;80.45
5595;BME280;1003;48.002;7.788;2022-07-04T04:06:05;99117.59;;;19.66;81.08
5595;BME280;1003;48.002;7.788;2022-07-04T04:08:33;99129.34;;;19.69;80.64
5595;BME280;1003;48.002;7.788;2022-07-04T04:11:00;99130.66;;;19.58;81.69
5595;BME280;1003;48.002;7.788;2022-07-04T04:13:27;99138.22;;;19.79;80.19
5595;BME280;1003;48.002;7.788;2022-07-04T04:15:54;99135.13;;;19.89;78.93
5595;BME280;1003;48.002;7.788;2022-07-04T04:18:21;99136.19;;;19.85;78.61
5595;BME280;1003;48.002;7.788;2022-07-04T04:20:48;99140.72;;;19.80;80.37
5595;BME280;1003;48.002;7.788;2022-07-04T04:23:17;99144.34;;;19.75;80.13
5595;BME280;1003;48.002;7.788;2022-07-04T04:25:46;99142.19;;;19.84;80.50
5595;BME280;1003;48.002;7.788;2022-07-04T04:28:13;99150.81;;;19.82;80.42
5595;BME280;1003;48.002;7.788;2022-07-04T04:30:40;99161.94;;;19.81;80.57
5595;BME280;1003;48.002;7.788;2022-07-04T04:33:07;99170.63;;;19.77;81.32
5595;BME280;1003;48.002;7.788;2022-07-04T04:35:34;99182.16;;;19.66;82.64
5595;BME280;1003;48.002;7.788;2022-07-04T04:38:01;99186.53;;;19.82;81.21
5595;BME280;1003;48.002;7.788;2022-07-04T04:40:30;99179.31;;;19.73;82.47
5595;BME280;1003;48.002;7.788;2022-07-04T04:42:57;99198.53;;;19.80;80.96
5595;BME280;1003;48.002;7.788;2022-07-04T04:45:24;99214.19;;;19.72;84.29
5595;BME280;1003;48.002;7.788;2022-07-04T04:47:51;99223.19;;;19.62;87.12
5595;BME280;1003;48.002;7.788;2022-07-04T04:50:19;99236.91;;;19.59;90.41
5595;BME280;1003;48.002;7.788;2022-07-04T04:52:46;99252.22;;;19.58;93.15
5595;BME280;1003;48.002;7.788;2022-07-04T04:55:13;99271.03;;;19.55;93.93
5595;BME280;1003;48.002;7.788;2022-07-04T04:57:42;99280.63;;;19.50;95.22
5595;BME280;1003;48.002;7.788;2022-07-04T05:00:11;99273.88;;;19.49;95.15
5595;BME280;1003;48.002;7.788;2022-07-04T05:02:38;99254.38;;;19.48;98.56
5595;BME280;1003;48.002;7.788;2022-07-04T05:05:06;99240.94;;;19.45;98.95
5595;BME280;1003;48.002;7.788;2022-07-04T05:07:33;99234.03;;;19.47;97.07
5595;BME280;1003;48.002;7.788;2022-07-04T05:10:01;99230.47;;;19.51;97.23
5595;BME280;1003;48.002;7.788;2022-07-04T05:12:28;99233.28;;;19.63;95.17
5595;BME280;1003;48.002;7.788;2022-07-04T05:14:57;99245.28;;;19.80;92.96
5595;BME280;1003;48.002;7.788;2022-07-04T05:17:24;99237.13;;;19.91;97.16
5595;BME280;1003;48.002;7.788;2022-07-04T05:19:51;99237.34;;;20.04;95.86
5595;BME280;1003;48.002;7.788;2022-07-04T05:22:19;99229.41;;;20.10;94.82
5595;BME280;1003;48.002;7.788;2022-07-04T05:24:46;99221.22;;;20.21;90.49
5595;BME280;1003;48.002;7.788;2022-07-04T05:27:13;99210.72;;;20.27;89.91
5595;BME280;1003;48.002;7.788;2022-07-04T05:29:40;99194.72;;;20.23;88.41
5595;BME280;1003;48.002;7.788;2022-07-04T05:32:09;99192.22;;;20.39;87.32
5595;BME280;1003;48.002;7.788;2022-07-04T05:34:36;99179.53;;;20.37;82.42
5595;BME280;1003;48.002;7.788;2022-07-04T05:37:04;99176.31;;;20.34;82.21
5595;BME280;1003;48.002;7.788;2022-07-04T05:39:31;99170.00;;;20.41;80.61
5595;BME280;1003;48.002;7.788;2022-07-04T05:41:58;99169.88;;;20.27;83.03
5595;BME280;1003;48.002;7.788;2022-07-04T05:44:25;99159.34;;;20.33;83.25
5595;BME280;1003;48.002;7.788;2022-07-04T05:46:54;99148.41;;;20.48;83.15
5595;BME280;1003;48.002;7.788;2022-07-04T05:49:22;99131.28;;;20.66;81.60
5595;BME280;1003;48.002;7.788;2022-07-04T05:51:49;99130.66;;;20.78;80.70
5595;BME280;1003;48.002;7.788;2022-07-04T05:54:16;99132.16;;;20.98;79.42
5595;BME280;1003;48.002;7.788;2022-07-04T05:56:44;99131.75;;;21.21;80.98
5595;BME280;1003;48.002;7.788;2022-07-04T05:59:11;99144.44;;;21.55;74.25
5595;BME280;1003;48.002;7.788;2022-07-04T06:01:38;99142.97;;;21.81;71.58
5595;BME280;1003;48.002;7.788;2022-07-04T06:04:06;99137.81;;;21.96;71.30
5595;BME280;1003;48.002;7.788;2022-07-04T06:06:34;99149.31;;;22.04;71.91
5595;BME280;1003;48.002;7.788;2022-07-04T06:09:02;99156.41;;;22.14;74.89
5595;BME280;1003;48.002;7.788;2022-07-04T06:11:30;99154.56;;;22.16;74.29
5595;BME280;1003;48.002;7.788;2022-07-04T06:13:58;99149.97;;;22.07;74.53
5595;BME280;1003;48.002;7.788;2022-07-04T06:16:25;99160.91;;;21.95;73.64
5595;BME280;1003;48.002;7.788;2022-07-04T06:18:52;99153.06;;;21.98;76.34
5595;BME280;1003;48.002;7.788;2022-07-04T06:21:19;99161.56;;;22.29;82.19
5595;BME280;1003;48.002;7.788;2022-07-04T06:23:48;99164.31;;;22.97;74.79
5595;BME280;1003;48.002;7.788;2022-07-04T06:26:15;99170.44;;;23.09;71.80
5595;BME280;1003;48.002;7.788;2022-07-04T06:28:42;99178.41;;;23.04;71.88
5595;BME280;1003;48.002;7.788;2022-07-04T06:31:11;99187.38;;;22.83;70.10
5595;BME280;1003;48.002;7.788;2022-07-04T06:33:38;99177.03;;;22.56;73.44
5595;BME280;1003;48.002;7.788;2022-07-04T06:36:19;99188.06;;;22.13;78.04
5595;BME280;1003;48.002;7.788;2022-07-04T06:38:47;99188.38;;;22.07;78.98
5595;BME280;1003;48.002;7.788;2022-07-04T06:41:14;99183.59;;;22.31;82.25
5595;BME280;1003;48.002;7.788;2022-07-04T06:43:41;99179.13;;;22.49;79.10
5595;BME280;1003;48.002;7.788;2022-07-04T06:46:09;99187.53;;;22.65;78.87
5595;BME280;1003;48.002;7.788;2022-07-04T06:48:36;99185.72;;;23.10;75.52
5595;BME280;1003;48.002;7.788;2022-07-04T06:51:03;99184.81;;;22.83;69.63
5595;BME280;1003;48.002;7.788;2022-07-04T06:53:30;99188.81;;;22.87;70.25
5595;BME280;1003;48.002;7.788;2022-07-04T06:55:59;99177.41;;;22.92;70.01
5595;BME280;1003;48.002;7.788;2022-07-04T06:58:26;99172.38;;;22.91;70.00
5595;BME280;1003;48.002;7.788;2022-07-04T07:00:53;99185.63;;;22.83;75.47
5595;BME280;1003;48.002;7.788;2022-07-04T07:03:20;99188.66;;;23.04;77.72
5595;BME280;1003;48.002;7.788;2022-07-04T07:05:47;99195.66;;;23.56;77.17
5595;BME280;1003;48.002;7.788;2022-07-04T07:08:14;99204.44;;;24.46;70.08
5595;BME280;1003;48.002;7.788;2022-07-04T07:10:41;99209.00;;;25.17;60.79
5595;BME280;1003;48.002;7.788;2022-07-04T07:13:10;99214.88;;;25.43;58.59
5595;BME280;1003;48.002;7.788;2022-07-04T07:15:37;99220.91;;;25.31;62.53
5595;BME280;1003;48.002;7.788;2022-07-04T07:18:06;99219.22;;;25.43;61.88
5595;BME280;1003;48.002;7.788;2022-07-04T07:20:33;99215.19;;;25.15;63.98
5595;BME280;1003;48.002;7.788;2022-07-04T07:23:02;99215.22;;;24.76;62.92
5595;BME280;1003;48.002;7.788;2022-07-04T07:25:29;99216.25;;;24.35;65.10
5595;BME280;1003;48.002;7.788;2022-07-04T07:27:56;99211.97;;;24.09;64.24
5595;BME280;1003;48.002;7.788;2022-07-04T07:30:25;99205.47;;;23.91;65.07
5595;BME280;1003;48.002;7.788;2022-07-04T07:32:52;99214.25;;;24.90;59.22
5595;BME280;1003;48.002;7.788;2022-07-04T07:35:19;99210.84;;;25.52;56.45
5595;BME280;1003;48.002;7.788;2022-07-04T07:37:47;99209.97;;;25.64;55.41
5595;BME280;1003;48.002;7.788;2022-07-04T07:40:14;99206.69;;;26.32;56.03
5595;BME280;1003;48.002;7.788;2022-07-04T07:42:41;99201.59;;;27.11;55.58
5595;BME280;1003;48.002;7.788;2022-07-04T07:45:09;99201.03;;;28.04;51.20
5595;BME280;1003;48.002;7.788;2022-07-04T07:47:37;99194.81;;;28.48;49.77
5595;BME280;1003;48.002;7.788;2022-07-04T07:50:05;99200.59;;;28.19;47.49
5595;BME280;1003;48.002;7.788;2022-07-04T07:52:33;99199.53;;;28.73;45.09
5595;BME280;1003;48.002;7.788;2022-07-04T07:55:00;99196.63;;;27.73;46.34
5595;BME280;1003;48.002;7.788;2022-07-04T07:57:27;99192.34;;;26.86;48.79
5595;BME280;1003;48.002;7.788;2022-07-04T07:59:54;99189.88;;;27.50;50.98
5595;BME280;1003;48.002;7.788;2022-07-04T08:02:22;99189.59;;;28.78;44.85
5595;BME280;1003;48.002;7.788;2022-07-04T08:05:12;99192.03;;;28.70;44.59
5595;BME280;1003;48.002;7.788;2022-07-04T08:07:39;99183.66;;;28.57;44.00
5595;BME280;1003;48.002;7.788;2022-07-04T08:10:08;99177.53;;;28.48;47.51
5595;BME280;1003;48.002;7.788;2022-07-04T08:12:36;99166.56;;;28.35;50.67
5595;BME280;1003;48.002;7.788;2022-07-04T08:15:04;99173.97;;;28.80;50.31
5595;BME280;1003;48.002;7.788;2022-07-04T08:17:31;99160.44;;;29.07;46.25
5595;BME280;1003;48.002;7.788;2022-07-04T08:19:58;99158.66;;;28.67;45.71
5595;BME280;1003;48.002;7.788;2022-07-04T08:22:27;99155.81;;;29.01;44.16
5595;BME280;1003;48.002;7.788;2022-07-04T08:24:55;99151.28;;;28.93;45.50
5595;BME280;1003;48.002;7.788;2022-07-04T08:27:22;99152.94;;;28.64;46.32
5595;BME280;1003;48.002;7.788;2022-07-04T08:29:49;99149.28;;;28.36;47.55
5595;BME280;1003;48.002;7.788;2022-07-04T08:32:17;99139.41;;;28.20;48.57
5595;BME280;1003;48.002;7.788;2022-07-04T08:34:44;99150.28;;;27.61;52.48
5595;BME280;1003;48.002;7.788;2022-07-04T08:37:14;99140.13;;;27.69;52.50
5595;BME280;1003;48.002;7.788;2022-07-04T08:39:43;99136.63;;;27.70;49.00
5595;BME280;1003;48.002;7.788;2022-07-04T08:42:16;99145.28;;;28.01;48.20
5595;BME280;1003;48.002;7.788;2022-07-04T08:44:48;99143.25;;;28.05;47.18
5595;BME280;1003;48.002;7.788;2022-07-04T08:47:19;99146.91;;;27.81;49.69
5595;BME280;1003;48.002;7.788;2022-07-04T08:49:53;99152.00;;;27.92;47.55
5595;BME280;1003;48.002;7.788;2022-07-04T08:52:34;99152.06;;;27.81;48.99
5595;BME280;1003;48.002;7.788;2022-07-04T08:55:06;99149.00;;;27.55;51.61
5595;BME280;1003;48.002;7.788;2022-07-04T08:57:52;99154.75;;;27.59;54.74
5595;BME280;1003;48.002;7.788;2022-07-04T09:00:37;99161.31;;;27.31;51.67
5595;BME280;1003;48.002;7.788;2022-07-04T09:03:05;99162.81;;;27.44;54.27
5595;BME280;1003;48.002;7.788;2022-07-04T09:05:33;99164.25;;;27.58;52.39
5595;BME280;1003;48.002;7.788;2022-07-04T09:08:03;99161.53;;;27.60;51.05
5595;BME280;1003;48.002;7.788;2022-07-04T09:10:31;99160.72;;;27.27;50.16
5595;BME280;1003;48.002;7.788;2022-07-04T09:13:01;99153.53;;;26.87;51.19
5595;BME280;1003;48.002;7.788;2022-07-04T09:15:30;99144.41;;;26.50;53.67
5595;BME280;1003;48.002;7.788;2022-07-04T09:17:58;99148.97;;;26.46;53.88
5595;BME280;1003;48.002;7.788;2022-07-04T09:20:28;99151.53;;;26.46;54.07
5595;BME280;1003;48.002;7.788;2022-07-04T09:22:56;99148.97;;;26.46;53.26
5595;BME280;1003;48.002;7.788;2022-07-04T09:25:25;99153.13;;;26.13;52.83
5595;BME280;1003;48.002;7.788;2022-07-04T09:27:55;99153.94;;;26.25;51.85
5595;BME280;1003;48.002;7.788;2022-07-04T09:30:25;99152.25;;;25.90;55.33
5595;BME280;1003;48.002;7.788;2022-07-04T09:32:55;99139.56;;;26.23;55.70
5595;BME280;1003;48.002;7.788;2022-07-04T09:35:27;99152.16;;;25.92;55.95
5595;BME280;1003;48.002;7.788;2022-07-04T09:38:03;99139.03;;;26.64;54.51
5595;BME280;1003;48.002;7.788;2022-07-04T09:40:32;99143.50;;;27.16;52.70
5595;BME280;1003;48.002;7.788;2022-07-04T09:43:21;99153.78;;;27.60;47.48
5595;BME280;1003;48.002;7.788;2022-07-04T09:45:54;99150.28;;;27.93;48.23
5595;BME280;1003;48.002;7.788;2022-07-04T09:48:22;99154.25;;;28.48;46.50
5595;BME280;1003;48.002;7.788;2022-07-04T09:50:51;99148.19;;;28.69;46.29
5595;BME280;1003;48.002;7.788;2022-07-04T09:53:18;99149.91;;;28.99;45.41
5595;BME280;1003;48.002;7.788;2022-07-04T09:55:45;99146.16;;;28.72;45.86
5595;BME280;1003;48.002;7.788;2022-07-04T09:58:16;99137.72;;;28.40;46.38
5595;BME280;1003;48.002;7.788;2022-07-04T10:00:46;99130.38;;;28.14;48.89
5595;BME280;1003;48.002;7.788;2022-07-04T10:03:18;99139.53;;;27.97;47.79
5595;BME280;1003;48.002;7.788;2022-07-04T10:06:03;99144.28;;;27.71;46.53
5595;BME280;1003;48.002;7.788;2022-07-04T10:08:31;99138.03;;;26.87;47.51
5595;BME280;1003;48.002;7.788;2022-07-04T10:11:00;99142.84;;;26.58;49.21
5595;BME280;1003;48.002;7.788;2022-07-04T10:13:28;99143.75;;;27.02;48.99
5595;BME280;1003;48.002;7.788;2022-07-04T10:15:58;99142.94;;;27.13;50.54
5595;BME280;1003;48.002;7.788;2022-07-04T10:18:26;99138.00;;;27.10;51.87
5595;BME280;1003;48.002;7.788;2022-07-04T10:20:55;99141.19;;;27.13;50.39
5595;BME280;1003;48.002;7.788;2022-07-04T10:23:24;99132.69;;;27.23;48.61
5595;BME280;1003;48.002;7.788;2022-07-04T10:25:57;99141.75;;;27.06;51.18
5595;BME280;1003;48.002;7.788;2022-07-04T10:28:24;99142.00;;;27.03;51.75
5595;BME280;1003;48.002;7.788;2022-07-04T10:30:54;99143.03;;;27.11;49.81
5595;BME280;1003;48.002;7.788;2022-07-04T10:33:26;99137.63;;;26.49;51.43
5595;BME280;1003;48.002;7.788;2022-07-04T10:35:56;99135.44;;;26.09;51.62
5595;BME280;1003;48.002;7.788;2022-07-04T10:38:26;99140.28;;;26.47;56.14
5595;BME280;1003;48.002;7.788;2022-07-04T10:40:55;99139.78;;;26.20;52.08
5595;BME280;1003;48.002;7.788;2022-07-04T10:43:52;99139.22;;;26.27;51.03
5595;BME280;1003;48.002;7.788;2022-07-04T10:46:43;99136.06;;;26.46;50.52
5595;BME280;1003;48.002;7.788;2022-07-04T10:49:34;99141.34;;;26.67;50.57
5595;BME280;1003;48.002;7.788;2022-07-04T10:52:10;99135.25;;;26.68;50.23
5595;BME280;1003;48.002;7.788;2022-07-04T10:54:40;99137.81;;;26.68;50.88
5595;BME280;1003;48.002;7.788;2022-07-04T10:57:14;99137.44;;;26.16;51.08
5595;BME280;1003;48.002;7.788;2022-07-04T10:59:43;99133.91;;;26.06;51.57
5595;BME280;1003;48.002;7.788;2022-07-04T11:02:27;99136.16;;;26.33;51.41
5595;BME280;1003;48.002;7.788;2022-07-04T11:05:00;99124.72;;;26.49;52.47
5595;BME280;1003;48.002;7.788;2022-07-04T11:07:57;99129.28;;;26.45;51.37
5595;BME280;1003;48.002;7.788;2022-07-04T11:10:25;99120.72;;;26.33;50.33
5595;BME280;1003;48.002;7.788;2022-07-04T11:13:15;99125.88;;;26.67;50.84
5595;BME280;1003;48.002;7.788;2022-07-04T11:16:02;99121.03;;;26.96;49.57
5595;BME280;1003;48.002;7.788;2022-07-04T11:18:38;99106.56;;;27.16;48.06
5595;BME280;1003;48.002;7.788;2022-07-04T11:21:21;99104.72;;;27.60;47.96
5595;BME280;1003;48.002;7.788;2022-07-04T11:23:55;99099.75;;;28.40;46.78
5595;BME280;1003;48.002;7.788;2022-07-04T11:26:24;99108.25;;;29.02;45.76
5595;BME280;1003;48.002;7.788;2022-07-04T11:28:51;99105.16;;;29.57;45.09
5595;BME280;1003;48.002;7.788;2022-07-04T11:31:19;99103.38;;;29.67;43.73
5595;BME280;1003;48.002;7.788;2022-07-04T11:33:47;99102.41;;;29.58;44.96
5595;BME280;1003;48.002;7.788;2022-07-04T11:36:17;99102.16;;;29.61;42.84
5595;BME280;1003;48.002;7.788;2022-07-04T11:38:54;99103.34;;;29.47;44.74
5595;BME280;1003;48.002;7.788;2022-07-04T11:41:23;99101.34;;;29.61;43.47
5595;BME280;1003;48.002;7.788;2022-07-04T11:44:11;99099.66;;;29.21;44.42
5595;BME280;1003;48.002;7.788;2022-07-04T11:47:09;99098.19;;;29.09;42.69
5595;BME280;1003;48.002;7.788;2022-07-04T11:49:43;99098.59;;;29.23;43.66
5595;BME280;1003;48.002;7.788;2022-07-04T11:52:13;99097.06;;;29.11;42.98
5595;BME280;1003;48.002;7.788;2022-07-04T11:54:42;99097.06;;;29.11;43.24
5595;BME280;1003;48.002;7.788;2022-07-04T11:57:13;99097.47;;;29.16;41.97
5595;BME280;1003;48.002;7.788;2022-07-04T11:59:41;99095.06;;;29.44;43.32
5595;BME280;1003;48.002;7.788;2022-07-04T12:02:14;99099.06;;;29.95;41.48
5595;BME280;1003;48.002;7.788;2022-07-04T12:04:42;99101.47;;;30.06;41.54
5595;BME280;1003;48.002;7.788;2022-07-04T12:07:13;99095.34;;;29.97;41.63
5595;BME280;1003;48.002;7.788;2022-07-04T12:09:41;99096.66;;;30.30;40.39
5595;BME280;1003;48.002;7.788;2022-07-04T12:12:09;99102.44;;;30.15;40.54
5595;BME280;1003;48.002;7.788;2022-07-04T12:14:37;99092.59;;;29.71;41.37
5595;BME280;1003;48.002;7.788;2022-07-04T12:17:16;99091.72;;;29.80;43.93
5595;BME280;1003;48.002;7.788;2022-07-04T12:19:54;99092.53;;;29.81;43.00
5595;BME280;1003;48.002;7.788;2022-07-04T12:22:30;99086.38;;;29.92;40.89
5595;BME280;1003;48.002;7.788;2022-07-04T12:24:58;99086.38;;;29.92;41.69
5595;BME280;1003;48.002;7.788;2022-07-04T12:27:26;99073.28;;;30.03;40.95
5595;BME280;1003;48.002;7.788;2022-07-04T12:29:55;99068.31;;;30.10;40.92
5595;BME280;1003;48.002;7.788;2022-07-04T12:32:23;99064.19;;;29.70;40.74
5595;BME280;1003;48.002;7.788;2022-07-04T12:34:50;99058.63;;;29.65;41.88
5595;BME280;1003;48.002;7.788;2022-07-04T12:37:17;99054.41;;;28.86;42.74
5595;BME280;1003;48.002;7.788;2022-07-04T12:39:47;99049.00;;;28.99;41.77
5595;BME280;1003;48.002;7.788;2022-07-04T12:42:17;99038.88;;;28.86;42.62
5595;BME280;1003;48.002;7.788;2022-07-04T12:44:46;99036.31;;;28.86;44.94
5595;BME280;1003;48.002;7.788;2022-07-04T12:47:15;99041.97;;;28.41;44.15
5595;BME280;1003;48.002;7.788;2022-07-04T12:49:44;99033.28;;;28.71;43.19
5595;BME280;1003;48.002;7.788;2022-07-04T12:52:14;99041.09;;;29.00;42.52
5595;BME280;1003;48.002;7.788;2022-07-04T12:54:42;99037.84;;;29.08;42.64
5595;BME280;1003;48.002;7.788;2022-07-04T12:57:15;99040.38;;;29.37;43.75
5595;BME280;1003;48.002;7.788;2022-07-04T12:59:44;99038.34;;;29.41;44.51
5595;BME280;1003;48.002;7.788;2022-07-04T13:02:14;99045.69;;;29.45;44.45
5595;BME280;1003;48.002;7.788;2022-07-04T13:04:42;99047.31;;;29.66;44.92
5595;BME280;1003;48.002;7.788;2022-07-04T13:07:14;99048.28;;;30.02;41.32
5595;BME280;1003;48.002;7.788;2022-07-04T13:09:44;99039.25;;;30.06;42.41
5595;BME280;1003;48.002;7.788;2022-07-04T13:12:14;99042.88;;;29.86;42.30
5595;BME280;1003;48.002;7.788;2022-07-04T13:14:55;99043.94;;;29.65;42.18
5595;BME280;1003;48.002;7.788;2022-07-04T13:17:24;99047.75;;;29.32;41.22
5595;BME280;1003;48.002;7.788;2022-07-04T13:20:04;99047.91;;;29.31;43.56
5595;BME280;1003;48.002;7.788;2022-07-04T13:22:31;99045.28;;;29.40;47.39
5595;BME280;1003;48.002;7.788;2022-07-04T13:24:59;99047.41;;;29.84;44.69
5595;BME280;1003;48.002;7.788;2022-07-04T13:27:30;99048.28;;;30.12;43.91
5595;BME280;1003;48.002;7.788;2022-07-04T13:29:58;99035.69;;;30.17;44.26
5595;BME280;1003;48.002;7.788;2022-07-04T13:32:25;99028.03;;;30.25;43.44
5595;BME280;1003;48.002;7.788;2022-07-04T13:34:52;99034.88;;;30.06;44.38